Time;durP1;ratioP1;P1;durP2;ratioP2;P2;SDS_P1;SDS_P2;PMS_P1;PMS_P2;Temp;Humidity;BMP_temperature;BMP_pressure;BME280_temperature;BME280_humidity;BME280_pressure;Samples;Min_cycle;Max_cycle;Signal;HPM_P1;HPM_P2
2022/02/03 00:02:43;;;;;;;5.40;2.63;;;0.50;99.90;;;;;;5097604;28;20020;-67
2022/02/03 00:05:21;;;;;;;7.70;2.13;;;0.50;99.90;;;;;;5097320;28;20028;-67
2022/02/03 00:22:02;;;;;;;20.95;2.83;;;0.70;99.90;;;;;;5082080;28;20019;-67
2022/02/03 00:26:35;;;;;;;7.30;2.85;;;0.80;99.90;;;;;;5096532;28;20095;-68
2022/02/03 00:29:15;;;;;;;10.00;2.70;;;0.80;99.90;;;;;;5096269;28;20024;-68
2022/02/03 00:34:39;;;;;;;;;;;0.80;99.90;;;;;;5101869;28;20319;-67
2022/02/03 00:37:15;;;;;;;9.75;2.92;;;0.90;99.90;;;;;;5101987;28;19904;-67
2022/02/03 00:50:49;;;;;;;11.63;2.50;;;1.20;99.90;;;;;;5101009;28;20389;-67
2022/02/03 00:53:19;;;;;;;11.45;4.22;;;1.30;99.90;;;;;;5100314;28;20032;-67
2022/02/03 00:55:53;;;;;;;14.52;3.03;;;1.30;99.90;;;;;;5099784;28;20081;-67
2022/02/03 00:58:25;;;;;;;11.07;3.00;;;1.40;99.90;;;;;;5099841;28;20372;-67
2022/02/03 01:00:58;;;;;;;18.10;2.85;;;1.40;99.90;;;;;;5099839;28;20099;-67
2022/02/03 01:03:30;;;;;;;16.70;3.00;;;1.40;99.90;;;;;;5100097;28;20047;-67
2022/02/03 01:06:00;;;;;;;12.05;2.65;;;1.50;99.90;;;;;;5081986;28;20431;-67
2022/02/03 01:08:30;;;;;;;14.25;3.78;;;1.50;99.90;;;;;;5099801;28;20032;-67
2022/02/03 01:11:09;;;;;;;12.10;3.60;;;1.50;99.90;;;;;;5099620;28;20416;-67
2022/02/03 01:13:43;;;;;;;9.55;2.55;;;1.60;99.90;;;;;;5099763;28;20035;-68
2022/02/03 01:16:24;;;;;;;8.88;2.85;;;1.60;99.90;;;;;;5083757;28;20423;-67
2022/02/03 01:44:16;;;;;;;12.15;3.25;;;2.10;99.90;;;;;;5083801;28;20077;-67
2022/02/03 01:47:00;;;;;;;13.27;3.47;;;2.20;99.90;;;;;;5099392;28;20024;-67
2022/02/03 01:52:36;;;;;;;20.17;5.22;;;2.40;99.90;;;;;;5099421;28;20358;-67
2022/02/03 01:55:10;;;;;;;14.88;3.35;;;2.50;99.90;;;;;;5080994;28;20357;-67
2022/02/03 01:57:57;;;;;;;13.95;3.40;;;2.50;99.90;;;;;;5099470;28;20384;-67
2022/02/03 02:00:25;;;;;;;15.23;2.78;;;2.50;99.90;;;;;;5081832;28;20066;-67
2022/02/03 02:03:12;;;;;;;13.25;2.58;;;2.50;99.90;;;;;;5099930;28;20430;-67
2022/02/03 02:05:58;;;;;;;16.42;4.13;;;2.50;99.90;;;;;;5100277;28;20028;-67
2022/02/03 02:08:39;;;;;;;6.75;3.05;;;2.50;99.90;;;;;;5081633;28;20051;-67
2022/02/03 02:11:52;;;;;;;11.85;3.30;;;2.40;99.90;;;;;;5099919;28;20027;-67
2022/02/03 02:36:50;;;;;;;22.38;3.38;;;2.40;99.90;;;;;;5098427;28;20446;-67
2022/02/03 02:43:38;;;;;;;27.42;7.13;;;2.50;99.90;;;;;;5088090;28;20505;-67
2022/02/03 02:46:23;;;;;;;17.80;6.30;;;2.60;99.90;;;;;;5036924;28;20033;-67
2022/02/03 02:49:13;;;;;;;27.20;6.95;;;2.80;99.90;;;;;;5093922;28;20075;-67
2022/02/03 02:51:57;;;;;;;21.70;6.70;;;2.90;99.90;;;;;;5099709;28;20069;-67
2022/02/03 02:55:24;;;;;;;24.63;6.80;;;3.00;99.90;;;;;;5097612;28;20035;-67
2022/02/03 02:58:28;;;;;;;22.02;5.95;;;3.10;99.90;;;;;;5091316;28;20032;-67
2022/02/03 03:01:52;;;;;;;18.05;5.78;;;3.20;99.90;;;;;;5097716;28;20024;-67
2022/02/03 03:32:36;;;;;;;11.38;4.20;;;3.60;99.90;;;;;;5098079;28;20396;-67
2022/02/03 03:37:56;;;;;;;10.38;4.82;;;3.70;99.90;;;;;;5098453;28;20026;-67
2022/02/03 03:40:24;;;;;;;12.38;4.75;;;3.70;99.90;;;;;;5097891;28;20024;-67
2022/02/03 03:43:04;;;;;;;15.93;5.05;;;3.80;99.90;;;;;;5097077;28;20020;-67
2022/02/03 03:45:33;;;;;;;15.88;5.10;;;3.80;99.90;;;;;;5096999;28;20089;-67
2022/02/03 03:48:05;;;;;;;11.48;4.38;;;3.80;99.90;;;;;;5096708;28;20035;-67
2022/02/03 03:50:37;;;;;;;12.57;5.18;;;3.90;99.90;;;;;;5096693;28;20491;-67
2022/02/03 03:53:22;;;;;;;13.57;4.80;;;3.90;99.90;;;;;;5096648;28;20039;-67
2022/02/03 03:56:02;;;;;;;9.48;4.78;;;3.90;99.90;;;;;;5096344;28;20027;-67
2022/02/03 04:29:17;;;;;;;10.77;5.32;;;4.50;99.90;;;;;;5096721;28;20071;-67
2022/02/03 04:43:57;;;;;;;18.02;7.28;;;4.80;99.90;;;;;;5096309;28;20027;-67
2022/02/03 05:02:52;;;;;;;24.08;8.93;;;5.20;99.90;;;;;;5097203;28;20024;-67
2022/02/03 05:05:37;;;;;;;22.55;8.38;;;5.20;99.90;;;;;;5096854;28;20488;-67
2022/02/03 05:11:26;;;;;;;19.90;8.75;;;5.20;99.90;;;;;;5096452;28;20492;-68
2022/02/03 05:20:15;;;;;;;20.90;8.65;;;5.30;99.90;;;;;;5099342;28;20107;-67
2022/02/03 05:23:34;;;;;;;26.48;9.00;;;5.30;99.90;;;;;;5099576;28;20083;-67
2022/02/03 05:47:16;;;;;;;26.75;9.77;;;5.50;99.90;;;;;;5100205;28;20020;-67
2022/02/03 05:52:56;;;;;;;;;;;5.60;99.90;;;;;;5099591;28;20027;-67
2022/02/03 06:06:51;;;;;;;36.75;12.57;;;6.00;99.90;;;;;;5087987;28;20051;-68
2022/02/03 06:09:43;;;;;;;42.55;13.93;;;6.00;99.90;;;;;;5098524;28;20035;-68
2022/02/03 06:12:38;;;;;;;41.58;14.50;;;6.10;99.90;;;;;;5099948;28;20039;-67
2022/02/03 06:15:12;;;;;;;37.20;13.20;;;6.10;99.90;;;;;;5099060;28;20024;-68
2022/02/03 06:29:04;;;;;;;35.35;13.27;;;6.20;99.90;;;;;;5098577;28;20144;-68
2022/02/03 06:31:36;;;;;;;35.00;11.50;;;6.20;99.90;;;;;;5098346;28;20432;-68
2022/02/03 06:34:04;;;;;;;28.48;11.10;;;6.30;99.90;;;;;;5098068;28;20435;-68
2022/02/03 06:36:32;;;;;;;24.40;10.35;;;6.30;99.90;;;;;;5098072;28;20030;-68
2022/02/03 06:39:00;;;;;;;19.08;8.75;;;6.30;99.90;;;;;;5098311;28;20411;-68
2022/02/03 06:41:28;;;;;;;22.55;9.13;;;6.40;99.90;;;;;;5098041;28;20415;-68
2022/02/03 06:43:55;;;;;;;20.58;7.90;;;6.40;99.90;;;;;;5080091;28;20050;-68
2022/02/03 06:46:25;;;;;;;18.88;7.97;;;6.40;99.90;;;;;;5098141;28;20042;-68
2022/02/03 06:49:05;;;;;;;18.67;7.30;;;6.50;99.90;;;;;;5097644;28;20475;-68
2022/02/03 06:51:39;;;;;;;19.77;8.02;;;6.50;99.90;;;;;;5097815;28;20106;-68
2022/02/03 06:54:17;;;;;;;20.52;8.73;;;6.50;99.90;;;;;;5098049;28;20032;-68
2022/02/03 06:56:55;;;;;;;21.63;7.47;;;6.60;99.90;;;;;;5098665;28;20012;-68
2022/02/03 06:59:33;;;;;;;21.90;9.45;;;6.60;99.90;;;;;;5098291;28;20055;-75
2022/02/03 07:02:02;;;;;;;24.17;10.10;;;6.60;99.90;;;;;;5098508;28;20071;-67
2022/02/03 07:04:38;;;;;;;22.83;9.63;;;6.70;99.90;;;;;;5098298;28;20028;-68
2022/02/03 07:07:06;;;;;;;22.17;8.93;;;6.70;99.90;;;;;;5098670;28;20111;-67
2022/02/03 07:09:34;;;;;;;22.75;9.93;;;6.70;99.90;;;;;;5080494;28;20028;-67
2022/02/03 07:12:03;;;;;;;24.75;9.70;;;6.80;99.90;;;;;;5098413;28;20207;-67
2022/02/03 07:14:32;;;;;;;21.15;9.13;;;6.80;99.90;;;;;;5080079;28;20028;-68
2022/02/03 07:17:02;;;;;;;25.17;9.90;;;6.90;99.90;;;;;;5079542;28;20020;-67
2022/02/03 07:19:29;;;;;;;19.85;9.63;;;6.90;99.90;;;;;;5079811;28;20097;-68
2022/02/03 07:21:57;;;;;;;23.08;9.10;;;6.90;99.90;;;;;;5097235;28;20103;-67
2022/02/03 07:24:25;;;;;;;22.27;9.23;;;6.90;99.90;;;;;;5097247;28;20035;-68
2022/02/03 07:26:52;;;;;;;21.20;9.43;;;7.00;99.90;;;;;;5097033;28;20052;-67
2022/02/03 07:29:20;;;;;;;20.40;8.30;;;7.00;99.90;;;;;;5079146;28;20054;-68
2022/02/03 07:31:48;;;;;;;24.00;10.43;;;7.00;99.90;;;;;;5096896;28;20078;-69
2022/02/03 07:34:18;;;;;;;22.02;9.85;;;7.00;99.90;;;;;;5097523;28;20020;-66
2022/02/03 07:36:47;;;;;;;19.90;8.48;;;7.10;99.90;;;;;;5097654;28;20034;-66
2022/02/03 07:39:14;;;;;;;14.77;6.82;;;7.10;99.90;;;;;;5097917;28;20069;-68
2022/02/03 07:41:42;;;;;;;18.98;8.77;;;7.10;99.90;;;;;;5097500;28;20408;-68
2022/02/03 07:44:13;;;;;;;19.02;8.77;;;7.20;99.90;;;;;;5098348;28;20024;-68
2022/02/03 07:46:41;;;;;;;13.93;7.07;;;7.10;99.90;;;;;;5080784;28;20035;-68
2022/02/03 07:49:08;;;;;;;16.00;7.68;;;7.20;99.90;;;;;;5079778;28;20020;-68
2022/02/03 07:51:36;;;;;;;14.43;7.43;;;7.20;99.90;;;;;;5098030;28;20316;-68
2022/02/03 07:54:09;;;;;;;17.80;7.35;;;7.20;99.90;;;;;;5098014;28;20465;-73
2022/02/03 07:56:40;;;;;;;14.40;5.68;;;7.20;99.90;;;;;;5097397;28;20297;-73
2022/02/03 07:59:08;;;;;;;14.13;7.45;;;7.20;99.90;;;;;;5097276;28;20013;-68
2022/02/03 08:01:36;;;;;;;14.07;6.57;;;7.20;99.90;;;;;;5078751;28;20024;-69
2022/02/03 08:04:06;;;;;;;13.15;6.43;;;7.20;99.90;;;;;;5078668;28;20332;-69
2022/02/03 08:06:39;;;;;;;13.30;6.03;;;7.20;99.90;;;;;;5097342;28;20020;-70
2022/02/03 08:09:12;;;;;;;13.80;6.60;;;7.20;99.90;;;;;;5096396;28;20028;-73
2022/02/03 08:11:45;;;;;;;14.55;7.15;;;7.30;99.90;;;;;;5096800;28;20377;-73
2022/02/03 08:14:22;;;;;;;16.65;6.95;;;7.30;99.90;;;;;;5096365;28;20439;-73
2022/02/03 08:17:01;;;;;;;16.50;8.02;;;7.30;99.90;;;;;;5096939;28;20408;-73
2022/02/03 08:22:25;;;;;;;14.85;7.32;;;7.30;99.90;;;;;;5071954;28;20032;-73
2022/02/03 08:25:04;;;;;;;20.10;8.82;;;7.30;99.90;;;;;;5097117;28;20032;-72
2022/02/03 08:27:54;;;;;;;14.07;6.43;;;7.30;99.90;;;;;;5097532;28;20032;-67
2022/02/03 08:32:59;;;;;;;16.58;7.13;;;7.30;99.90;;;;;;5097091;28;20048;-67
2022/02/03 08:35:37;;;;;;;12.55;6.60;;;7.30;99.90;;;;;;5097433;28;20032;-67
2022/02/03 08:40:58;;;;;;;13.80;6.93;;;7.30;99.90;;;;;;5096331;28;20020;-70
2022/02/03 08:43:28;;;;;;;12.15;5.63;;;7.30;99.90;;;;;;5096623;28;20070;-71
2022/02/03 08:45:57;;;;;;;13.38;6.72;;;7.30;99.90;;;;;;5078842;28;20039;-68
2022/02/03 08:48:25;;;;;;;13.45;5.90;;;7.30;99.90;;;;;;5078371;28;20034;-68
2022/02/03 08:50:54;;;;;;;10.90;4.82;;;7.30;99.90;;;;;;5061852;28;20027;-68
2022/02/03 08:53:28;;;;;;;14.25;6.45;;;7.30;99.90;;;;;;5080901;28;20021;-68
2022/02/03 08:56:19;;;;;;;14.13;6.60;;;7.30;99.90;;;;;;5083198;28;20331;-68
2022/02/03 08:59:18;;;;;;;15.38;6.45;;;7.30;99.90;;;;;;5099900;28;20103;-68
2022/02/03 09:35:16;;;;;;;11.23;5.55;;;7.30;99.90;;;;;;5047933;28;20044;-68
2022/02/03 09:37:57;;;;;;;10.20;5.57;;;7.30;99.90;;;;;;5078788;28;20032;-67
2022/02/03 09:40:43;;;;;;;8.43;4.43;;;7.30;99.90;;;;;;5078684;28;20023;-67
2022/02/03 09:54:37;;;;;;;13.88;7.53;;;7.40;99.90;;;;;;5079644;28;20078;-69
2022/02/03 10:02:24;;;;;;;13.10;6.85;;;7.50;99.90;;;;;;5065026;28;20058;-68
2022/02/03 10:05:00;;;;;;;13.13;6.43;;;7.40;99.90;;;;;;5078780;28;20417;-67
2022/02/03 10:07:35;;;;;;;9.70;5.13;;;7.40;99.90;;;;;;5078358;28;20029;-67
2022/02/03 10:10:12;;;;;;;12.93;6.47;;;7.40;99.90;;;;;;5078278;28;20025;-68
2022/02/03 10:12:42;;;;;;;12.13;5.95;;;7.50;99.90;;;;;;5079054;28;20294;-67
2022/02/03 10:15:12;;;;;;;11.95;5.60;;;7.60;99.90;;;;;;5078100;28;20332;-67
2022/02/03 10:17:48;;;;;;;15.85;6.85;;;7.70;99.90;;;;;;5077190;28;20471;-67
2022/02/03 10:20:22;;;;;;;12.65;6.07;;;7.80;99.90;;;;;;5078003;28;20103;-68
2022/02/03 10:22:52;;;;;;;12.60;5.18;;;7.80;99.90;;;;;;5078294;28;20026;-68
2022/02/03 10:25:30;;;;;;;12.60;6.28;;;7.90;99.90;;;;;;5078557;28;20158;-67
2022/02/03 10:28:02;;;;;;;13.35;7.60;;;7.90;99.90;;;;;;5078682;28;20026;-68
2022/02/03 10:30:42;;;;;;;11.77;6.65;;;7.90;99.90;;;;;;5078993;28;20440;-70
2022/02/03 10:33:10;;;;;;;10.18;5.97;;;7.90;99.90;;;;;;5095628;28;20432;-69
2022/02/03 10:35:47;;;;;;;17.75;7.55;;;7.90;99.90;;;;;;5081065;28;20339;-69
2022/02/03 10:46:49;;;;;;;11.20;5.97;;;7.80;99.90;;;;;;5098843;28;20031;-68
2022/02/03 10:52:56;;;;;;;10.05;5.60;;;7.80;99.90;;;;;;5098307;28;20120;-68
2022/02/03 10:55:46;;;;;;;9.27;4.90;;;7.80;99.90;;;;;;5097368;28;20469;-68
2022/02/03 10:58:44;;;;;;;10.35;5.32;;;7.70;99.90;;;;;;5097626;28;20059;-69
2022/02/03 11:04:34;;;;;;;10.77;5.07;;;7.70;99.90;;;;;;5013055;28;20105;-68
2022/02/03 11:07:07;;;;;;;9.30;4.82;;;7.70;99.90;;;;;;5097308;28;20074;-68
2022/02/03 11:09:51;;;;;;;10.65;5.05;;;7.60;99.90;;;;;;5097879;28;20024;-68
2022/02/03 11:12:23;;;;;;;13.23;5.45;;;7.60;99.90;;;;;;5098126;28;20032;-68
2022/02/03 11:17:39;;;;;;;11.93;5.88;;;7.60;99.90;;;;;;5086486;28;20085;-69
2022/02/03 11:20:08;;;;;;;11.45;5.65;;;7.70;99.90;;;;;;5063760;28;20020;-68
2022/02/03 11:22:55;;;;;;;11.23;4.95;;;7.60;99.90;;;;;;5098107;28;20313;-68
2022/02/03 11:28:32;;;;;;;9.45;5.25;;;7.70;99.90;;;;;;5098223;28;20039;-68
2022/02/03 11:31:57;;;;;;;8.43;4.50;;;7.70;99.90;;;;;;5097340;28;20028;-69
2022/02/03 11:37:04;;;;;;;8.38;5.15;;;7.70;99.90;;;;;;5076900;28;20031;-70
2022/02/03 11:42:42;;;;;;;9.98;5.57;;;7.70;99.90;;;;;;5077147;28;20047;-68
2022/02/03 11:45:36;;;;;;;10.70;5.40;;;7.70;99.90;;;;;;5076439;28;20058;-68
2022/02/03 11:51:11;;;;;;;7.90;4.80;;;7.70;99.90;;;;;;5076914;28;20016;-69
2022/02/03 12:00:38;;;;;;;9.50;4.60;;;7.80;99.90;;;;;;5060852;28;20103;-69
2022/02/03 12:22:08;;;;;;;9.68;5.15;;;7.70;99.90;;;;;;5076748;28;20025;-71
2022/02/03 12:24:58;;;;;;;10.85;5.50;;;7.70;99.90;;;;;;5076085;28;20039;-70
2022/02/03 12:27:54;;;;;;;11.15;5.22;;;7.70;99.90;;;;;;5078571;28;20040;-70
2022/02/03 12:30:31;;;;;;;10.27;5.53;;;7.70;99.90;;;;;;5080506;28;20016;-69
2022/02/03 12:36:57;;;;;;;9.30;5.40;;;7.70;99.90;;;;;;5095165;28;20048;-67
2022/02/03 12:38:47;;;;;;;7.35;3.65;;;7.70;99.90;;;;;;5101866;28;20027;-68
2022/02/03 12:41:23;;;;;;;6.22;3.22;;;7.70;99.90;;;;;;5101700;28;20024;-67
2022/02/03 12:44:01;;;;;;;4.43;2.95;;;7.70;99.90;;;;;;5083492;28;20320;-68
2022/02/03 12:46:30;;;;;;;4.65;2.58;;;7.70;99.90;;;;;;5100969;28;20032;-68
2022/02/03 12:48:59;;;;;;;3.75;2.17;;;7.70;99.90;;;;;;5101173;28;20027;-68
2022/02/03 12:51:27;;;;;;;6.38;2.42;;;7.70;99.90;;;;;;5101277;28;20024;-68
2022/02/03 12:53:55;;;;;;;3.10;1.80;;;7.70;99.90;;;;;;5082955;28;20134;-67
2022/02/03 12:56:24;;;;;;;3.85;1.85;;;7.60;99.90;;;;;;5100168;28;20423;-67
2022/02/03 12:59:00;;;;;;;2.28;1.17;;;7.70;99.90;;;;;;5100049;28;20327;-67
2022/02/03 13:01:33;;;;;;;2.50;1.40;;;7.70;99.90;;;;;;5099928;28;20020;-69
2022/02/03 13:04:18;;;;;;;3.08;1.20;;;7.60;99.90;;;;;;5099606;28;20020;-70
2022/02/03 13:07:00;;;;;;;1.65;0.90;;;7.60;99.90;;;;;;5099694;28;20020;-69
2022/02/03 13:09:38;;;;;;;2.70;1.13;;;7.60;99.90;;;;;;5099696;28;20030;-67
2022/02/03 13:12:28;;;;;;;1.92;1.08;;;7.60;99.90;;;;;;5100227;28;20479;-68
2022/02/03 13:14:59;;;;;;;1.77;1.00;;;7.60;99.90;;;;;;5099938;28;20028;-68
2022/02/03 13:17:34;;;;;;;2.00;1.00;;;7.60;99.90;;;;;;5099847;28;20108;-67
2022/02/03 13:20:21;;;;;;;3.28;1.25;;;7.60;99.90;;;;;;5100352;28;20028;-67
2022/02/03 13:23:00;;;;;;;2.10;1.10;;;7.60;99.90;;;;;;5100681;28;20024;-69
2022/02/03 13:28:10;;;;;;;4.97;1.85;;;7.60;99.90;;;;;;5100459;28;20021;-68
2022/02/03 13:30:51;;;;;;;1.02;0.50;;;7.70;99.90;;;;;;5100563;28;20024;-68
2022/02/03 13:33:26;;;;;;;1.48;0.70;;;7.70;99.90;;;;;;5099887;28;20340;-69
2022/02/03 13:36:05;;;;;;;0.95;0.50;;;7.70;99.90;;;;;;5100094;28;20067;-69
2022/02/03 13:41:10;;;;;;;2.65;1.00;;;7.60;99.90;;;;;;5099340;28;20319;-67
2022/02/03 13:43:44;;;;;;;2.50;1.20;;;7.50;99.90;;;;;;5098984;28;20020;-67
2022/02/03 13:46:25;;;;;;;2.35;1.17;;;7.40;99.90;;;;;;5099238;28;20028;-68
2022/02/03 13:48:52;;;;;;;4.38;2.10;;;7.40;99.90;;;;;;5097157;28;20032;-68
2022/02/03 13:51:24;;;;;;;3.78;2.28;;;7.30;99.90;;;;;;5080981;28;20050;-68
2022/02/03 13:54:07;;;;;;;4.88;2.55;;;7.30;99.90;;;;;;5098874;28;20024;-68
2022/02/03 14:11:51;;;;;;;16.65;6.00;;;7.10;99.90;;;;;;5099726;28;20031;-68
2022/02/03 14:14:24;;;;;;;13.10;5.22;;;7.20;99.90;;;;;;5099275;28;20369;-68
2022/02/03 14:21:47;;;;;;;8.32;4.90;;;7.30;99.90;;;;;;5098904;28;20052;-68
2022/02/03 14:27:18;;;;;;;7.70;5.43;;;7.30;99.90;;;;;;5098361;28;20324;-68
2022/02/03 14:29:49;;;;;;;9.27;5.55;;;7.30;99.90;;;;;;5099355;28;20031;-68
2022/02/03 14:32:28;;;;;;;6.30;4.07;;;7.20;99.90;;;;;;5098439;28;20424;-68
2022/02/03 14:34:57;;;;;;;8.50;5.68;;;7.20;99.90;;;;;;5098083;28;20028;-68
2022/02/03 14:40:20;;;;;;;9.07;5.95;;;7.10;99.90;;;;;;5098743;28;20031;-68
2022/02/03 14:42:49;;;;;;;10.05;6.53;;;7.10;99.90;;;;;;5098387;28;20020;-68
2022/02/03 14:45:18;;;;;;;8.40;5.80;;;7.00;99.90;;;;;;5064406;28;20479;-68
2022/02/03 14:47:46;;;;;;;11.07;6.30;;;7.00;99.90;;;;;;5098679;28;20391;-68
2022/02/03 14:50:13;;;;;;;11.02;7.15;;;7.00;99.90;;;;;;5080016;28;20031;-68
2022/02/03 14:58:13;;;;;;;15.00;8.07;;;6.90;99.90;;;;;;5099083;28;20481;-68
2022/02/03 15:00:45;;;;;;;14.07;8.52;;;6.90;99.90;;;;;;5098409;28;20021;-68
2022/02/03 15:03:14;;;;;;;17.88;9.60;;;6.80;99.90;;;;;;5099295;28;20024;-68
2022/02/03 15:05:42;;;;;;;13.70;7.57;;;6.70;99.90;;;;;;5079733;28;20335;-68
2022/02/03 15:08:18;;;;;;;13.95;8.63;;;6.70;99.90;;;;;;5097518;28;20454;-68
2022/02/03 15:10:52;;;;;;;;;;;6.70;99.90;;;;;;5099317;28;20035;-68
2022/02/03 15:13:40;;;;;;;14.95;8.75;;;6.70;99.90;;;;;;5135783;27;20703;-68
2022/02/03 15:16:10;;;;;;;17.08;10.85;;;6.60;99.90;;;;;;5114242;28;20032;-68
2022/02/03 15:18:38;;;;;;;18.30;10.00;;;6.60;99.90;;;;;;5096331;28;20028;-69
2022/02/03 15:21:06;;;;;;;17.70;9.63;;;6.60;99.90;;;;;;5115585;28;20354;-68
2022/02/03 15:23:34;;;;;;;16.55;9.52;;;6.60;99.90;;;;;;5114875;28;20030;-66
2022/02/03 15:26:01;;;;;;;17.90;10.23;;;6.60;99.90;;;;;;5089662;28;20032;-67
2022/02/03 15:28:29;;;;;;;20.20;9.63;;;6.50;99.90;;;;;;5095111;28;20421;-67
2022/02/03 15:30:57;;;;;;;15.27;9.30;;;6.50;99.90;;;;;;5094810;28;20353;-67
2022/02/03 15:33:28;;;;;;;17.15;10.20;;;6.50;99.90;;;;;;5094656;28;20032;-66
2022/02/03 15:36:03;;;;;;;16.65;9.45;;;6.50;99.90;;;;;;5094874;28;20059;-67
2022/02/03 15:38:36;;;;;;;14.23;8.30;;;6.50;99.90;;;;;;5095096;28;20040;-66
2022/02/03 15:41:07;;;;;;;19.13;10.20;;;6.50;99.90;;;;;;5095650;28;20266;-66
2022/02/03 15:43:41;;;;;;;18.38;9.80;;;6.50;99.90;;;;;;5095316;28;20300;-67
2022/02/03 15:46:11;;;;;;;17.65;10.15;;;6.50;99.90;;;;;;5094115;28;20298;-67
2022/02/03 15:48:47;;;;;;;16.05;8.88;;;6.50;99.90;;;;;;5093304;28;20111;-67
2022/02/03 15:56:48;;;;;;;14.10;8.57;;;6.40;99.90;;;;;;5078555;28;20104;-66
2022/02/03 16:18:10;;;;;;;15.52;7.00;;;6.30;99.90;;;;;;5073671;28;20021;-67
2022/02/03 16:20:46;;;;;;;15.07;7.38;;;6.30;99.90;;;;;;5073315;28;20055;-66
2022/02/03 16:51:06;;;;;;;11.50;5.28;;;6.20;99.90;;;;;;5059251;28;20070;-65
2022/02/03 16:53:34;;;;;;;9.65;5.30;;;6.20;99.90;;;;;;5060291;28;20063;-65
2022/02/03 16:56:07;;;;;;;7.75;4.65;;;6.20;99.90;;;;;;5041895;28;20501;-65
2022/02/03 16:58:36;;;;;;;11.13;4.88;;;6.20;99.90;;;;;;5059782;28;20367;-65
2022/02/03 17:01:04;;;;;;;9.07;4.05;;;6.10;99.90;;;;;;5059910;28;20021;-65
2022/02/03 17:03:32;;;;;;;19.25;5.50;;;6.20;99.90;;;;;;5041703;28;20029;-65
2022/02/03 17:06:00;;;;;;;11.50;4.18;;;6.10;99.90;;;;;;5041811;28;20090;-65
2022/02/03 17:08:27;;;;;;;10.57;5.53;;;6.10;99.90;;;;;;5059750;28;20077;-65
2022/02/03 17:10:55;;;;;;;6.70;4.18;;;6.10;99.90;;;;;;5058909;28;20070;-65
2022/02/03 17:13:22;;;;;;;9.63;4.55;;;6.10;99.90;;;;;;5075409;28;20045;-65
2022/02/03 17:15:49;;;;;;;9.73;5.25;;;6.10;99.90;;;;;;5078478;28;20195;-65
2022/02/03 17:18:17;;;;;;;8.77;4.70;;;6.10;99.90;;;;;;5077419;28;20355;-65
2022/02/03 17:20:45;;;;;;;8.18;4.43;;;6.10;99.90;;;;;;5077152;28;20024;-65
2022/02/03 17:23:17;;;;;;;7.65;4.85;;;6.10;99.90;;;;;;5078134;28;20021;-65
2022/02/03 17:25:52;;;;;;;11.80;5.47;;;6.10;99.90;;;;;;5078784;28;20025;-65
2022/02/03 17:28:34;;;;;;;8.23;4.20;;;6.00;99.90;;;;;;5078047;28;20033;-65
2022/02/03 17:31:19;;;;;;;12.82;4.55;;;6.00;99.90;;;;;;5078415;28;20507;-65
2022/02/03 17:45:25;;;;;;;10.50;6.32;;;5.80;99.90;;;;;;5078656;28;20036;-65
2022/02/03 18:05:49;;;;;;;13.00;7.53;;;5.80;99.90;;;;;;5077305;28;20153;-65
2022/02/03 18:10:22;;;;;;;18.17;8.82;;;5.80;99.90;;;;;;5077139;28;20024;-65
2022/02/03 18:19:17;;;;;;;13.88;8.07;;;5.80;99.90;;;;;;5058259;28;20048;-65
2022/02/03 18:50:50;;;;;;;16.95;9.02;;;5.70;99.90;;;;;;5057084;28;20429;-65
2022/02/03 18:53:31;;;;;;;14.52;8.98;;;5.60;99.90;;;;;;5057229;28;20036;-65
2022/02/03 19:01:28;;;;;;;14.80;9.13;;;5.60;99.90;;;;;;5057468;28;20021;-65
2022/02/03 19:14:53;;;;;;;15.30;8.60;;;5.60;99.90;;;;;;5057214;28;20048;-65
2022/02/03 19:23:36;;;;;;;20.35;10.32;;;5.60;99.90;;;;;;5056501;28;20032;-65
2022/02/03 19:29:06;;;;;;;20.20;10.65;;;5.60;99.90;;;;;;5056470;28;20090;-65
2022/02/03 20:02:17;;;;;;;19.95;11.48;;;5.60;99.90;;;;;;5059948;28;20486;-65
2022/02/03 20:04:50;;;;;;;21.05;10.65;;;5.60;99.90;;;;;;5059295;28;20099;-65
2022/02/03 20:07:42;;;;;;;18.92;10.43;;;5.60;99.90;;;;;;5059692;28;20075;-65
2022/02/03 20:10:20;;;;;;;16.90;10.48;;;5.60;99.90;;;;;;5059287;28;20033;-65
2022/02/03 20:12:48;;;;;;;19.27;10.02;;;5.60;99.90;;;;;;5062474;28;20044;-65
2022/02/03 20:15:20;;;;;;;19.80;9.50;;;5.60;99.90;;;;;;5079881;28;20047;-65
2022/02/03 20:17:48;;;;;;;21.67;10.88;;;5.60;99.90;;;;;;5079348;28;20128;-65
2022/02/03 20:20:15;;;;;;;18.25;10.73;;;5.60;99.90;;;;;;5079350;28;20021;-65
2022/02/03 20:22:43;;;;;;;18.38;10.30;;;5.70;99.90;;;;;;5079101;28;20024;-64
2022/02/03 20:25:11;;;;;;;18.50;10.70;;;5.70;99.90;;;;;;5080662;28;20024;-65
2022/02/03 20:27:39;;;;;;;16.92;9.63;;;5.70;99.90;;;;;;5079211;28;20131;-65
2022/02/03 20:30:08;;;;;;;17.90;9.65;;;5.70;99.90;;;;;;5080039;28;20035;-65
2022/02/03 20:32:36;;;;;;;20.23;10.27;;;5.70;99.90;;;;;;5079987;28;20077;-65
2022/02/03 20:35:05;;;;;;;19.25;10.45;;;5.70;99.90;;;;;;5080006;28;20028;-65
2022/02/03 20:37:32;;;;;;;16.92;9.90;;;5.70;99.90;;;;;;5080136;28;20090;-65
2022/02/03 20:40:00;;;;;;;17.65;9.95;;;5.70;99.90;;;;;;5078803;28;20067;-65
2022/02/03 20:42:28;;;;;;;17.75;10.30;;;5.70;99.90;;;;;;5079071;28;20031;-65
2022/02/03 20:44:55;;;;;;;21.17;9.68;;;5.70;99.90;;;;;;5077766;28;20032;-65
2022/02/03 20:47:25;;;;;;;18.35;10.07;;;5.70;99.90;;;;;;5078982;28;20024;-65
2022/02/03 20:49:53;;;;;;;20.73;11.48;;;5.70;99.90;;;;;;5078691;28;20020;-65
2022/02/03 20:52:21;;;;;;;18.48;10.05;;;5.70;99.90;;;;;;5077517;28;20028;-65
2022/02/03 20:54:48;;;;;;;15.95;10.05;;;5.70;99.90;;;;;;5077671;28;20024;-65
2022/02/03 20:57:17;;;;;;;20.58;10.75;;;5.70;99.90;;;;;;5079321;28;20025;-65
2022/02/03 21:02:40;;;;;;;20.30;11.88;;;5.70;99.90;;;;;;5077976;28;20090;-65
2022/02/03 21:05:15;;;;;;;20.50;11.40;;;5.70;99.90;;;;;;5079957;28;20029;-65
2022/02/03 21:07:44;;;;;;;24.50;12.23;;;5.60;99.90;;;;;;5079383;28;20371;-65
2022/02/03 21:10:16;;;;;;;24.77;12.45;;;5.60;99.90;;;;;;5079502;28;20025;-65
2022/02/03 21:12:46;;;;;;;21.92;10.50;;;5.60;99.90;;;;;;5067838;28;20045;-65
2022/02/03 21:15:25;;;;;;;25.67;12.55;;;5.60;99.90;;;;;;5059617;28;20025;-65
2022/02/03 21:17:55;;;;;;;26.05;11.98;;;5.60;99.90;;;;;;5058958;28;20409;-65
2022/02/03 21:20:23;;;;;;;23.40;12.57;;;5.60;99.90;;;;;;5059621;28;20048;-65
2022/02/03 21:22:51;;;;;;;22.17;12.38;;;5.60;99.90;;;;;;5058781;28;20441;-65
2022/02/03 21:25:32;;;;;;;25.13;13.35;;;5.70;99.90;;;;;;5058814;28;20035;-65
2022/02/03 21:28:20;;;;;;;19.25;11.30;;;5.60;99.90;;;;;;5058063;28;20108;-65
2022/02/03 21:30:49;;;;;;;23.63;12.85;;;5.60;99.90;;;;;;5058058;28;20025;-65
2022/02/03 21:33:31;;;;;;;23.40;13.90;;;5.60;99.90;;;;;;5040160;28;20040;-65
2022/02/03 21:36:11;;;;;;;24.10;12.45;;;5.60;99.90;;;;;;5040370;28;20112;-65
2022/02/03 21:38:41;;;;;;;23.33;12.65;;;5.60;99.90;;;;;;5057912;28;20021;-65
2022/02/03 21:41:11;;;;;;;25.88;13.32;;;5.60;99.90;;;;;;5057784;28;20024;-65
2022/02/03 21:43:38;;;;;;;24.77;13.38;;;5.50;99.90;;;;;;5057794;28;20017;-65
2022/02/03 21:46:07;;;;;;;26.33;14.27;;;5.50;99.90;;;;;;5040280;28;20031;-65
2022/02/03 21:48:36;;;;;;;27.73;15.20;;;5.50;99.90;;;;;;5058597;28;20079;-65
2022/02/03 21:51:05;;;;;;;28.70;14.85;;;5.50;99.90;;;;;;5059112;28;20029;-65
2022/02/03 21:53:34;;;;;;;27.10;14.45;;;5.50;99.90;;;;;;5058422;28;20409;-65
2022/02/03 21:56:02;;;;;;;28.85;15.75;;;5.50;99.90;;;;;;5059152;28;20059;-65
2022/02/03 21:58:29;;;;;;;27.83;15.15;;;5.50;99.90;;;;;;5058414;28;20044;-65
2022/02/03 22:00:58;;;;;;;29.30;15.10;;;5.50;99.90;;;;;;5040634;28;20159;-65
2022/02/03 22:10:12;;;;;;;28.02;15.60;;;5.50;99.90;;;;;;5057284;28;20444;-65
2022/02/03 22:12:39;;;;;;;28.30;14.93;;;5.50;99.90;;;;;;5057317;28;20052;-65
2022/02/03 22:15:07;;;;;;;32.42;16.77;;;5.50;99.90;;;;;;5057644;28;20021;-65
2022/02/03 22:17:35;;;;;;;30.75;16.33;;;5.50;99.90;;;;;;5057700;28;20025;-65
2022/02/03 22:20:07;;;;;;;33.30;16.75;;;5.60;99.90;;;;;;5039289;28;20053;-65
2022/02/03 22:28:05;;;;;;;32.50;16.45;;;5.50;99.90;;;;;;5057560;28;20021;-65
2022/02/03 22:39:04;;;;;;;37.15;17.90;;;5.50;99.90;;;;;;5057967;28;20032;-65
2022/02/03 22:42:25;;;;;;;37.13;19.30;;;5.50;99.90;;;;;;5040098;28;20052;-65
2022/02/03 22:47:20;;;;;;;30.77;16.98;;;5.50;99.90;;;;;;5057267;28;20487;-65
2022/02/03 22:49:48;;;;;;;39.28;17.67;;;5.50;99.90;;;;;;5056865;28;20017;-65
2022/02/03 22:52:20;;;;;;;33.72;17.33;;;5.50;99.90;;;;;;5056609;28;20112;-65
2022/02/03 22:54:48;;;;;;;30.15;16.70;;;5.50;99.90;;;;;;5056544;28;20017;-65
2022/02/03 22:57:16;;;;;;;36.65;18.05;;;5.50;99.90;;;;;;5056490;28;20025;-65
2022/02/03 23:02:23;;;;;;;36.90;16.85;;;5.50;99.90;;;;;;5056536;28;20360;-65
2022/02/03 23:04:50;;;;;;;36.92;17.40;;;5.50;99.90;;;;;;5038686;28;20028;-65
2022/02/03 23:07:24;;;;;;;32.78;16.95;;;5.50;99.90;;;;;;5038675;28;20512;-65
2022/02/03 23:10:12;;;;;;;36.08;18.45;;;5.50;99.90;;;;;;5056986;28;20025;-65
2022/02/03 23:12:55;;;;;;;34.70;17.70;;;5.50;99.90;;;;;;5057233;28;20049;-65
2022/02/03 23:18:07;;;;;;;34.13;16.50;;;5.50;99.90;;;;;;5057214;28;20021;-65